Terminal Aerodrome Forecast
Issued by NWS Birmingham, AL

Home | Current Version | Previous Version | Text Only | Print | Product List | Glossary On
Versions: 1 2 3 4 5 6 7 8 9 10 11 12 13 14 15 16 17 18 19 20 21 22 23 24 25
805
FTUS44 KBMX 241122
TAFBHM
TAF
KBHM 241122Z 2412/2512 32005KT P6SM OVC012
     FM241700 34010KT P6SM BKN025
     FM242100 34010KT P6SM BKN050
     FM250100 35004KT P6SM SKC=

USA.gov is the U.S. government's official web portal to all federal, state and local government web resources and services.